Time;durP1;ratioP1;P1;durP2;ratioP2;P2;SDS_P1;SDS_P2;PMS_P1;PMS_P2;Temp;Humidity;BMP_temperature;BMP_pressure;BME280_temperature;BME280_humidity;BME280_pressure;Samples;Min_cycle;Max_cycle;Signal;HPM_P1;HPM_P2
2023/10/05 00:01:21;;;;;;;;;;;15.70;99.90;;;;;;7331124;19;109824;-66
2023/10/05 00:03:50;;;;;;;;;;;15.70;99.90;;;;;;7334659;19;109240;-66
2023/10/05 00:06:23;;;;;;;;;;;15.60;99.90;;;;;;7333987;19;108653;-66
2023/10/05 00:08:52;;;;;;;;;;;15.70;99.90;;;;;;7337175;19;108973;-66
2023/10/05 00:11:24;;;;;;;;;;;15.60;99.90;;;;;;7340199;19;110165;-66
2023/10/05 00:14:08;;;;;;;;;;;15.70;99.90;;;;;;7333172;19;108385;-66
2023/10/05 00:16:37;;;;;;;;;;;15.70;99.90;;;;;;7334424;19;110806;-65
2023/10/05 00:19:15;;;;;;;;;;;15.70;99.90;;;;;;7334661;19;109554;-66
2023/10/05 00:21:55;;;;;;;;;;;15.60;99.90;;;;;;7333595;19;109066;-66
2023/10/05 00:24:37;;;;;;;;;;;15.60;99.90;;;;;;7336680;19;111056;-66
2023/10/05 00:27:08;;;;;;;;;;;15.60;99.90;;;;;;7332509;19;108746;-66
2023/10/05 00:29:45;;;;;;;;;;;15.60;99.90;;;;;;7335273;19;108890;-66
2023/10/05 00:32:15;;;;;;;;;;;15.60;99.90;;;;;;7331908;19;110414;-66
2023/10/05 00:34:44;;;;;;;;;;;15.60;99.90;;;;;;7338472;19;109534;-66
2023/10/05 00:37:11;;;;;;;;;;;15.50;99.90;;;;;;7333991;19;109880;-67
2023/10/05 00:39:39;;;;;;;;;;;15.50;99.90;;;;;;7332456;19;108803;-66
2023/10/05 00:42:10;;;;;;;;;;;15.50;99.90;;;;;;7335906;19;108691;-66
2023/10/05 00:44:40;;;;;;;;;;;15.50;99.90;;;;;;7331196;19;109522;-66
2023/10/05 00:47:09;;;;;;;;;;;15.50;99.90;;;;;;7330270;19;109161;-66
2023/10/05 00:52:15;;;;;;;;;;;15.50;99.90;;;;;;7334886;19;110490;-66
2023/10/05 00:54:48;;;;;;;;;;;15.40;99.90;;;;;;7330577;19;109392;-66
2023/10/05 00:57:19;;;;;;;;;;;15.40;99.90;;;;;;7337987;19;108787;-66
2023/10/05 00:59:56;;;;;;;;;;;15.40;99.90;;;;;;7334208;19;108995;-66
2023/10/05 01:02:25;;;;;;;;;;;15.40;99.90;;;;;;7331944;19;109353;-66
2023/10/05 01:05:14;;;;;;;;;;;15.40;99.90;;;;;;7332979;19;109153;-66
2023/10/05 01:12:48;;;;;;;;;;;15.40;99.90;;;;;;7334406;19;110182;-65
2023/10/05 01:15:21;;;;;;;;;;;15.40;99.90;;;;;;7332658;19;108802;-66
2023/10/05 01:17:51;;;;;;;;;;;15.40;99.90;;;;;;7336391;19;111478;-66
2023/10/05 01:22:47;;;;;;;;;;;15.30;99.90;;;;;;7332021;19;110781;-66
2023/10/05 01:25:14;;;;;;;;;;;15.30;99.90;;;;;;7335293;19;109906;-65
2023/10/05 01:27:47;;;;;;;;;;;15.30;99.90;;;;;;7331576;19;109732;-66
2023/10/05 01:30:17;;;;;;;;;;;15.30;99.90;;;;;;7335456;19;109216;-66
2023/10/05 01:32:45;;;;;;;;;;;15.20;99.90;;;;;;7332761;19;109943;-66
2023/10/05 01:35:13;;;;;;;;;;;15.20;99.90;;;;;;7332370;19;109014;-66
2023/10/05 01:37:41;;;;;;;;;;;15.20;99.90;;;;;;7330258;19;108977;-66
2023/10/05 01:42:48;;;;;;;;;;;15.20;99.90;;;;;;7330889;19;111133;-65
2023/10/05 01:45:16;;;;;;;;;;;15.20;99.90;;;;;;7326531;19;110670;-66
2023/10/05 01:47:46;;;;;;;;;;;15.20;99.90;;;;;;7330147;19;109768;-67
2023/10/05 01:50:22;;;;;;;;;;;15.20;99.90;;;;;;7328858;19;109526;-66
2023/10/05 01:52:57;;;;;;;;;;;15.10;99.90;;;;;;7337455;19;110246;-68
2023/10/05 01:55:24;;;;;;;;;;;15.10;99.90;;;;;;7338227;19;110313;-66
2023/10/05 01:57:53;;;;;;;;;;;15.20;99.90;;;;;;7340754;19;108714;-66
2023/10/05 02:00:23;;;;;;;;;;;15.10;99.90;;;;;;7337310;19;110651;-65
2023/10/05 02:02:52;;;;;;;;;;;15.10;99.90;;;;;;7346445;19;109516;-66
2023/10/05 02:05:20;;;;;;;;;;;15.10;99.90;;;;;;7334679;19;110153;-67
2023/10/05 02:07:49;;;;;;;;;;;15.10;99.90;;;;;;7337101;19;109700;-65
2023/10/05 02:10:20;;;;;;;;;;;15.00;99.90;;;;;;7341481;19;108699;-66
2023/10/05 02:12:54;;;;;;;;;;;15.00;99.90;;;;;;7338971;19;111606;-66
2023/10/05 02:15:28;;;;;;;;;;;15.00;99.90;;;;;;7337609;19;108699;-65
2023/10/05 02:17:59;;;;;;;;;;;15.00;99.90;;;;;;7341460;19;109949;-65
2023/10/05 02:23:01;;;;;;;;;;;15.00;99.90;;;;;;7336985;19;110001;-65
2023/10/05 02:25:33;;;;;;;;;;;15.00;99.90;;;;;;7342857;19;109307;-66
2023/10/05 02:28:00;;;;;;;;;;;15.00;99.90;;;;;;7338973;19;108374;-65
2023/10/05 02:30:27;;;;;;;;;;;15.00;99.90;;;;;;7338254;19;110328;-65
2023/10/05 02:32:55;;;;;;;;;;;15.00;99.90;;;;;;7339904;19;110873;-65
2023/10/05 02:35:30;;;;;;;;;;;15.00;99.90;;;;;;7337637;19;109130;-65
2023/10/05 02:37:58;;;;;;;;;;;15.10;99.90;;;;;;7338013;19;109854;-65
2023/10/05 02:40:46;;;;;;;;;;;15.00;99.90;;;;;;7336669;19;110227;-65
2023/10/05 02:43:15;;;;;;;;;;;15.00;99.90;;;;;;7336644;19;109109;-66
2023/10/05 02:45:44;;;;;;;;;;;15.10;99.90;;;;;;7336607;19;108812;-66
2023/10/05 02:48:11;;;;;;;;;;;15.10;99.90;;;;;;7338804;19;110912;-66
2023/10/05 02:50:38;;;;;;;;;;;15.10;99.90;;;;;;7335449;19;109069;-66
2023/10/05 02:53:06;;;;;;;;;;;15.10;99.90;;;;;;7337906;19;109304;-66
2023/10/05 02:55:36;;;;;;;;;;;15.10;99.90;;;;;;7336282;19;109882;-67
2023/10/05 02:58:07;;;;;;;;;;;15.10;99.90;;;;;;7339798;19;111325;-66
2023/10/05 03:00:34;;;;;;;;;;;15.10;99.90;;;;;;7336389;19;109259;-66
2023/10/05 03:03:05;;;;;;;;;;;15.10;99.90;;;;;;7333788;19;108923;-66
2023/10/05 03:05:35;;;;;;;;;;;15.10;99.90;;;;;;7337105;19;109415;-66
2023/10/05 03:08:03;;;;;;;;;;;15.10;99.90;;;;;;7335318;19;109923;-66
2023/10/05 03:10:30;;;;;;;;;;;15.10;99.90;;;;;;7341293;19;109364;-66
2023/10/05 03:12:58;;;;;;;;;;;15.10;99.90;;;;;;7334874;19;108936;-66
2023/10/05 03:15:27;;;;;;;;;;;15.10;99.90;;;;;;7337058;19;108876;-66
2023/10/05 03:17:57;;;;;;;;;;;15.20;99.90;;;;;;7337483;19;110265;-66
2023/10/05 03:20:24;;;;;;;;;;;15.20;99.90;;;;;;7336207;19;112546;-66
2023/10/05 03:22:55;;;;;;;;;;;15.20;99.90;;;;;;7333998;19;110486;-66
2023/10/05 03:25:23;;;;;;;;;;;15.20;99.90;;;;;;7337474;19;108942;-66
2023/10/05 03:27:50;;;;;;;;;;;15.20;99.90;;;;;;7335325;19;110441;-66
2023/10/05 03:30:17;;;;;;;;;;;15.20;99.90;;;;;;7344186;19;108518;-66
2023/10/05 03:32:48;;;;;;;;;;;15.10;99.90;;;;;;7334480;19;110786;-66
2023/10/05 03:35:22;;;;;;;;;;;15.10;99.90;;;;;;7334755;19;110062;-66
2023/10/05 03:37:49;;;;;;;;;;;15.10;99.90;;;;;;7337043;19;109486;-66
2023/10/05 03:40:22;;;;;;;;;;;15.10;99.90;;;;;;7337259;19;110914;-66
2023/10/05 03:42:57;;;;;;;;;;;15.10;99.90;;;;;;7335318;19;109662;-66
2023/10/05 03:45:24;;;;;;;;;;;15.00;99.90;;;;;;7334200;19;110291;-66
2023/10/05 03:47:53;;;;;;;;;;;15.00;99.90;;;;;;7336190;19;110216;-67
2023/10/05 03:50:21;;;;;;;;;;;15.00;99.90;;;;;;7334102;19;108990;-69
2023/10/05 03:52:48;;;;;;;;;;;15.00;99.90;;;;;;7340684;19;109368;-68
2023/10/05 03:55:18;;;;;;;;;;;15.00;99.90;;;;;;7334283;19;108916;-67
2023/10/05 03:57:46;;;;;;;;;;;15.00;99.90;;;;;;7333983;19;108943;-67
2023/10/05 04:00:58;;;;;;;;;;;15.00;99.90;;;;;;7333273;19;109155;-68
2023/10/05 04:03:06;;;;;;;;;;;15.00;99.90;;;;;;7334138;19;108461;-66
2023/10/05 04:05:39;;;;;;;;;;;14.90;99.90;;;;;;7334676;19;108644;-69
2023/10/05 04:08:16;;;;;;;;;;;14.90;99.90;;;;;;7332441;19;110691;-66
2023/10/05 04:10:47;;;;;;;;;;;14.90;99.90;;;;;;7333657;19;109181;-66
2023/10/05 04:13:16;;;;;;;;;;;14.90;99.90;;;;;;7333758;19;110054;-66
2023/10/05 04:15:45;;;;;;;;;;;14.90;99.90;;;;;;7338820;19;112690;-66
2023/10/05 04:18:15;;;;;;;;;;;14.90;99.90;;;;;;7333665;19;109806;-66
2023/10/05 04:20:46;;;;;;;;;;;14.90;99.90;;;;;;7331206;19;110466;-66
2023/10/05 04:23:20;;;;;;;;;;;14.90;99.90;;;;;;7334072;19;110662;-66
2023/10/05 04:25:51;;;;;;;;;;;14.90;99.90;;;;;;7334294;19;108929;-66
2023/10/05 04:28:30;;;;;;;;;;;14.90;99.90;;;;;;7333358;19;111299;-66
2023/10/05 04:30:58;;;;;;;;;;;14.90;99.90;;;;;;7335336;19;108879;-67
2023/10/05 04:33:29;;;;;;;;;;;14.80;99.90;;;;;;7333459;19;109969;-68
2023/10/05 04:35:56;;;;;;;;;;;14.90;99.90;;;;;;7332991;19;109416;-66
2023/10/05 04:38:25;;;;;;;;;;;14.90;99.90;;;;;;7337415;19;109213;-67
2023/10/05 04:40:52;;;;;;;;;;;14.90;99.90;;;;;;7334219;19;109835;-66
2023/10/05 04:43:21;;;;;;;;;;;14.90;99.90;;;;;;7335524;19;108885;-66
2023/10/05 04:45:50;;;;;;;;;;;14.90;99.90;;;;;;7332347;19;109000;-66
2023/10/05 04:48:18;;;;;;;;;;;14.90;99.90;;;;;;7333859;19;110483;-67
2023/10/05 04:50:49;;;;;;;;;;;14.80;99.90;;;;;;7334333;19;108814;-66
2023/10/05 04:53:17;;;;;;;;;;;14.80;99.90;;;;;;7333565;19;109462;-66
2023/10/05 04:55:46;;;;;;;;;;;14.90;99.90;;;;;;7332979;19;109656;-67
2023/10/05 04:58:24;;;;;;;;;;;14.90;99.90;;;;;;7336751;19;110390;-66
2023/10/05 05:01:15;;;;;;;;;;;14.90;99.90;;;;;;7337774;19;109288;-66
2023/10/05 05:04:00;;;;;;;;;;;14.90;99.90;;;;;;7329930;19;108649;-66
2023/10/05 05:06:32;;;;;;;;;;;14.90;99.90;;;;;;7331768;19;109896;-66
2023/10/05 05:09:00;;;;;;;;;;;14.90;99.90;;;;;;7332779;19;110662;-66
2023/10/05 05:11:27;;;;;;;;;;;14.90;99.90;;;;;;7332420;19;109137;-66
2023/10/05 05:13:54;;;;;;;;;;;14.90;99.90;;;;;;7332982;19;112824;-66
2023/10/05 05:16:21;;;;;;;;;;;14.90;99.90;;;;;;7334281;19;109538;-66
2023/10/05 05:18:48;;;;;;;;;;;14.80;99.90;;;;;;7328291;19;108953;-66
2023/10/05 05:21:16;;;;;;;;;;;14.80;99.90;;;;;;7330061;19;108959;-65
2023/10/05 05:23:43;;;;;;;;;;;14.80;99.90;;;;;;7335184;19;109916;-66
2023/10/05 05:26:11;;;;;;;;;;;14.80;99.90;;;;;;7332565;19;109556;-66
2023/10/05 05:28:38;;;;;;;;;;;14.80;99.90;;;;;;7340543;19;110569;-66
2023/10/05 05:31:16;;;;;;;;;;;14.80;99.90;;;;;;7340479;19;109786;-66
2023/10/05 05:33:44;;;;;;;;;;;14.70;99.90;;;;;;7339117;19;108916;-66
2023/10/05 05:36:12;;;;;;;;;;;14.70;99.90;;;;;;7337713;19;110270;-66
2023/10/05 05:38:40;;;;;;;;;;;14.70;99.90;;;;;;7340679;19;109525;-66
2023/10/05 05:41:15;;;;;;;;;;;14.70;99.90;;;;;;7339849;19;109914;-67
2023/10/05 05:43:43;;;;;;;;;;;14.70;99.90;;;;;;7342750;19;109801;-67
2023/10/05 05:46:20;;;;;;;;;;;14.70;99.90;;;;;;7340962;19;108443;-66
2023/10/05 05:48:52;;;;;;;;;;;14.70;99.90;;;;;;7337733;19;110028;-66
2023/10/05 05:51:24;;;;;;;;;;;14.60;99.90;;;;;;7340638;19;108718;-67
2023/10/05 05:53:52;;;;;;;;;;;14.60;99.90;;;;;;7341873;19;108610;-66
2023/10/05 05:56:19;;;;;;;;;;;14.70;99.90;;;;;;7337139;19;110168;-65
2023/10/05 05:58:47;;;;;;;;;;;14.70;99.90;;;;;;7340064;19;108785;-65
2023/10/05 06:01:14;;;;;;;;;;;14.70;99.90;;;;;;7340114;19;109052;-65
2023/10/05 06:03:43;;;;;;;;;;;14.70;99.90;;;;;;7338634;19;110369;-65
2023/10/05 06:06:10;;;;;;;;;;;14.70;99.90;;;;;;7342560;19;109597;-65
2023/10/05 06:08:40;;;;;;;;;;;14.70;99.90;;;;;;7339395;19;109793;-64
2023/10/05 06:11:08;;;;;;;;;;;14.70;99.90;;;;;;7341771;19;111717;-65
2023/10/05 06:16:13;;;;;;;;;;;14.80;99.90;;;;;;7337356;19;108392;-92
2023/10/05 06:18:40;;;;;;;;;;;14.80;99.90;;;;;;7342528;19;108610;-92
2023/10/05 06:21:08;;;;;;;;;;;14.80;99.90;;;;;;7344044;19;108470;-92
2023/10/05 06:23:35;;;;;;;;;;;14.80;99.90;;;;;;7340559;19;110273;-91
2023/10/05 06:26:03;;;;;;;;;;;14.80;99.90;;;;;;7342811;19;108574;-92
2023/10/05 06:28:32;;;;;;;;;;;14.80;99.90;;;;;;7345118;19;109211;-91
2023/10/05 06:31:01;;;;;;;;;;;14.80;99.90;;;;;;7343725;19;110317;-91
2023/10/05 06:33:28;;;;;;;;;;;14.80;99.90;;;;;;7339864;19;110027;-91
2023/10/05 06:35:55;;;;;;;;;;;14.90;99.90;;;;;;7340020;19;108934;-90
2023/10/05 06:38:23;;;;;;;;;;;14.90;99.90;;;;;;7339609;19;109216;-91
2023/10/05 06:40:50;;;;;;;;;;;14.90;99.90;;;;;;7342769;19;112517;-91
2023/10/05 06:43:17;;;;;;;;;;;14.90;99.90;;;;;;7340209;19;109082;-91
2023/10/05 06:45:45;;;;;;;;;;;15.00;99.90;;;;;;7340572;19;108701;-91
2023/10/05 06:48:14;;;;;;;;;;;15.00;99.90;;;;;;7340044;19;109290;-90
2023/10/05 06:50:43;;;;;;;;;;;15.00;99.90;;;;;;7344299;19;109100;-91
2023/10/05 06:53:13;;;;;;;;;;;15.00;99.90;;;;;;7337192;19;109290;-90
2023/10/05 06:55:40;;;;;;;;;;;15.00;99.90;;;;;;7340243;19;111300;-90
2023/10/05 06:58:07;;;;;;;;;;;15.00;99.90;;;;;;7339728;19;108581;-90
2023/10/05 07:00:35;;;;;;;;;;;15.10;99.90;;;;;;7337466;19;109517;-90
2023/10/05 07:03:06;;;;;;;;;;;15.10;99.90;;;;;;7340762;19;109990;-91
2023/10/05 07:05:34;;;;;;;;;;;15.10;99.90;;;;;;7338565;19;108828;-91
2023/10/05 07:08:04;;;;;;;;;;;15.20;99.90;;;;;;7339036;19;111662;-90
2023/10/05 07:10:31;;;;;;;;;;;15.20;99.90;;;;;;7341555;19;110667;-90
2023/10/05 07:12:58;;;;;;;;;;;15.30;99.90;;;;;;7344325;19;109042;-91
2023/10/05 07:15:26;;;;;;;;;;;15.30;99.90;;;;;;7336840;19;109473;-90
2023/10/05 07:17:53;;;;;;;;;;;15.30;99.90;;;;;;7338981;19;110016;-91
2023/10/05 07:20:20;;;;;;;;;;;15.40;99.90;;;;;;7336957;19;110560;-91
2023/10/05 07:22:48;;;;;;;;;;;15.40;99.90;;;;;;7339199;19;110513;-91
2023/10/05 07:25:17;;;;;;;;;;;15.40;99.90;;;;;;7339232;19;108851;-90
2023/10/05 07:27:44;;;;;;;;;;;15.50;99.90;;;;;;7338387;19;108748;-92
2023/10/05 07:30:13;;;;;;;;;;;15.50;99.90;;;;;;7341007;19;109926;-91
2023/10/05 07:32:40;;;;;;;;;;;15.50;99.90;;;;;;7338794;19;109085;-93
2023/10/05 07:35:09;;;;;;;;;;;15.60;99.90;;;;;;7340703;19;108504;-64
2023/10/05 07:37:37;;;;;;;;;;;15.50;99.90;;;;;;7334506;19;109647;-64
2023/10/05 07:40:07;;;;;;;;;;;15.60;99.90;;;;;;7331331;19;113501;-64
2023/10/05 07:42:37;;;;;;;;;;;15.70;99.90;;;;;;7335795;19;111299;-64
2023/10/05 07:45:07;;;;;;;;;;;15.70;99.90;;;;;;7336569;19;109616;-64
2023/10/05 07:47:43;;;;;;;;;;;15.70;99.90;;;;;;7332984;19;111421;-63
2023/10/05 07:50:11;;;;;;;;;;;15.80;99.90;;;;;;7334223;19;109135;-65
2023/10/05 07:52:40;;;;;;;;;;;15.80;99.90;;;;;;7333652;19;108761;-64
2023/10/05 07:55:08;;;;;;;;;;;15.80;99.90;;;;;;7338413;19;108846;-64
2023/10/05 07:57:39;;;;;;;;;;;15.90;99.90;;;;;;7335863;19;119025;-64
2023/10/05 08:00:12;;;;;;;;;;;15.90;99.90;;;;;;7332918;19;109138;-65
2023/10/05 08:02:40;;;;;;;;;;;16.00;99.90;;;;;;7333734;19;111161;-65
2023/10/05 08:05:09;;;;;;;;;;;16.00;99.90;;;;;;7335042;19;108395;-65
2023/10/05 08:07:37;;;;;;;;;;;16.10;99.90;;;;;;7336497;19;109405;-65
2023/10/05 08:10:05;;;;;;;;;;;16.20;99.90;;;;;;7333377;19;112760;-65
2023/10/05 08:12:32;;;;;;;;;;;16.20;99.90;;;;;;7339115;19;109100;-65
2023/10/05 08:14:59;;;;;;;;;;;16.20;99.90;;;;;;7334057;19;108691;-65
2023/10/05 08:17:27;;;;;;;;;;;16.20;99.90;;;;;;7339079;19;109277;-67
2023/10/05 08:19:54;;;;;;;;;;;16.20;99.90;;;;;;7329723;19;110150;-65
2023/10/05 08:22:22;;;;;;;;;;;16.20;99.90;;;;;;7334774;19;109081;-65
2023/10/05 08:24:51;;;;;;;;;;;16.30;99.90;;;;;;7333985;19;109332;-65
2023/10/05 08:27:19;;;;;;;;;;;16.30;99.90;;;;;;7335885;19;109237;-65
2023/10/05 08:29:47;;;;;;;;;;;16.30;99.90;;;;;;7331382;19;110367;-65
2023/10/05 08:32:16;;;;;;;;;;;16.40;99.90;;;;;;7334665;19;112874;-65
2023/10/05 08:34:45;;;;;;;;;;;16.40;99.90;;;;;;7332761;19;108724;-65
2023/10/05 08:37:13;;;;;;;;;;;16.40;99.90;;;;;;7334654;19;110180;-65
2023/10/05 08:39:41;;;;;;;;;;;16.50;99.90;;;;;;7338947;19;108970;-65
2023/10/05 08:42:08;;;;;;;;;;;16.50;99.90;;;;;;7332661;19;108942;-65
2023/10/05 08:44:38;;;;;;;;;;;16.50;99.90;;;;;;7334169;19;110933;-65
2023/10/05 08:47:10;;;;;;;;;;;16.50;99.90;;;;;;7330627;19;108445;-65
2023/10/05 08:49:38;;;;;;;;;;;16.60;99.90;;;;;;7332156;19;111215;-65
2023/10/05 08:52:23;;;;;;;;;;;16.60;99.90;;;;;;7333052;19;108474;-65
2023/10/05 08:54:51;;;;;;;;;;;16.60;99.90;;;;;;7332992;19;108660;-65
2023/10/05 08:57:18;;;;;;;;;;;16.60;99.90;;;;;;7332475;19;110071;-65
2023/10/05 08:59:45;;;;;;;;;;;16.70;99.90;;;;;;7332382;19;109186;-65
2023/10/05 09:02:18;;;;;;;;;;;16.70;99.90;;;;;;7336467;19;108916;-65
2023/10/05 09:04:50;;;;;;;;;;;16.70;99.90;;;;;;7331776;19;108703;-65
2023/10/05 09:07:37;;;;;;;;;;;16.80;99.90;;;;;;7334906;19;109827;-65
2023/10/05 09:10:06;;;;;;;;;;;16.80;99.90;;;;;;7332205;19;109487;-65
2023/10/05 09:17:56;;;;;;;;;;;16.90;99.90;;;;;;7331213;19;109842;-65
2023/10/05 09:20:23;;;;;;;;;;;16.90;99.90;;;;;;7332808;19;108890;-65
2023/10/05 09:22:53;;;;;;;;;;;16.90;99.90;;;;;;7330141;19;108945;-65
2023/10/05 09:25:27;;;;;;;;;;;16.90;99.90;;;;;;7337945;19;109691;-65
2023/10/05 09:27:56;;;;;;;;;;;16.90;99.90;;;;;;7330302;19;113805;-65
2023/10/05 09:30:29;;;;;;;;;;;17.00;99.90;;;;;;7333620;19;110037;-65
2023/10/05 09:33:15;;;;;;;;;;;17.00;99.90;;;;;;7330649;19;109537;-65
2023/10/05 09:35:46;;;;;;;;;;;17.00;99.90;;;;;;7330194;19;111967;-65
2023/10/05 09:38:14;;;;;;;;;;;17.00;99.90;;;;;;7329660;19;110454;-65
2023/10/05 09:40:46;;;;;;;;;;;17.00;99.90;;;;;;7331427;19;109025;-65
2023/10/05 09:43:18;;;;;;;;;;;17.00;99.90;;;;;;7332151;19;108715;-65
2023/10/05 09:45:49;;;;;;;;;;;17.00;99.90;;;;;;7330256;19;110625;-65
2023/10/05 09:48:19;;;;;;;;;;;17.00;99.90;;;;;;7337545;19;108274;-65
2023/10/05 09:50:47;;;;;;;;;;;17.00;99.90;;;;;;7329297;19;110371;-65
2023/10/05 09:53:20;;;;;;;;;;;17.00;99.90;;;;;;7329792;19;115604;-65
2023/10/05 09:55:53;;;;;;;;;;;17.10;99.90;;;;;;7332243;19;109690;-65
2023/10/05 09:58:21;;;;;;;;;;;17.10;99.90;;;;;;7331814;19;109574;-65
2023/10/05 10:00:49;;;;;;;;;;;17.10;99.90;;;;;;7332930;19;109243;-65
2023/10/05 10:03:17;;;;;;;;;;;17.20;99.90;;;;;;7329307;19;110004;-65
2023/10/05 10:05:48;;;;;;;;;;;17.20;99.90;;;;;;7333411;19;110156;-66
2023/10/05 10:08:21;;;;;;;;;;;17.30;99.90;;;;;;7336107;19;108603;-65
2023/10/05 10:11:00;;;;;;;;;;;17.30;99.90;;;;;;7331303;19;109194;-65
2023/10/05 10:13:39;;;;;;;;;;;17.40;99.90;;;;;;7336065;19;109270;-65
2023/10/05 10:16:23;;;;;;;;;;;17.40;99.90;;;;;;7340932;19;109677;-65
2023/10/05 10:19:45;;;;;;;;;;;17.40;99.90;;;;;;7340933;19;109363;-65
2023/10/05 10:21:53;;;;;;;;;;;17.50;99.90;;;;;;7336419;19;108721;-65
2023/10/05 10:24:20;;;;;;;;;;;17.60;99.90;;;;;;7338494;19;110815;-65
2023/10/05 10:27:15;;;;;;;;;;;17.60;99.90;;;;;;7336103;19;109583;-65
2023/10/05 10:29:46;;;;;;;;;;;17.70;99.90;;;;;;7338589;19;109107;-67
2023/10/05 10:32:18;;;;;;;;;;;17.80;99.90;;;;;;7345479;19;111457;-65
2023/10/05 10:34:52;;;;;;;;;;;17.80;99.90;;;;;;7337538;19;108863;-65
2023/10/05 10:37:54;;;;;;;;;;;17.90;99.90;;;;;;7337786;19;109144;-67
2023/10/05 10:42:53;;;;;;;;;;;18.10;99.90;;;;;;7337273;19;108699;-68
2023/10/05 10:45:28;;;;;;;;;;;18.20;99.90;;;;;;7336202;19;110588;-66
2023/10/05 10:47:59;;;;;;;;;;;18.30;99.90;;;;;;7335938;19;109222;-66
2023/10/05 10:50:30;;;;;;;;;;;18.40;99.90;;;;;;7336515;19;109388;-66
2023/10/05 10:52:58;;;;;;;;;;;18.50;99.90;;;;;;7338376;19;108431;-65
2023/10/05 10:55:30;;;;;;;;;;;18.60;99.90;;;;;;7342522;19;110279;-66
2023/10/05 10:58:04;;;;;;;;;;;18.70;99.90;;;;;;7340021;19;109114;-66
2023/10/05 11:03:41;;;;;;;;;;;18.80;99.90;;;;;;7336862;19;110673;-65
2023/10/05 11:11:47;;;;;;;;;;;18.90;99.90;;;;;;7332549;19;111269;-65
2023/10/05 11:14:21;;;;;;;;;;;19.00;99.90;;;;;;7334380;19;108876;-65
2023/10/05 11:16:59;;;;;;;;;;;19.10;99.90;;;;;;7331886;19;112490;-65
2023/10/05 11:19:36;;;;;;;;;;;19.20;99.90;;;;;;7338634;19;109237;-66
2023/10/05 11:22:06;;;;;;;;;;;19.30;99.90;;;;;;7334622;19;109194;-65
2023/10/05 11:24:39;;;;;;;;;;;19.30;99.90;;;;;;7334356;19;108893;-65
2023/10/05 11:27:14;;;;;;;;;;;19.40;99.90;;;;;;7335737;19;108332;-65
2023/10/05 11:29:48;;;;;;;;;;;19.50;99.90;;;;;;7333691;19;109805;-65
2023/10/05 11:32:23;;;;;;;;;;;19.60;99.90;;;;;;7334056;19;108355;-65
2023/10/05 11:35:13;;;;;;;;;;;19.70;99.90;;;;;;7336882;19;109196;-65
2023/10/05 11:37:58;;;;;;;;;;;19.80;99.90;;;;;;7333853;19;109082;-65
2023/10/05 11:40:31;;;;;;;;;;;19.80;99.90;;;;;;7334902;19;108691;-65
2023/10/05 11:43:04;;;;;;;;;;;19.90;99.90;;;;;;7340138;19;108778;-65
2023/10/05 11:45:33;;;;;;;;;;;19.90;99.90;;;;;;7332943;19;108800;-65
2023/10/05 11:48:12;;;;;;;;;;;19.90;99.90;;;;;;7336788;19;109138;-65
2023/10/05 11:50:51;;;;;;;;;;;20.00;99.90;;;;;;7334268;19;109581;-65
2023/10/05 11:53:24;;;;;;;;;;;20.00;99.90;;;;;;7334624;19;112037;-65
2023/10/05 11:55:52;;;;;;;;;;;20.10;99.90;;;;;;7332111;19;110273;-65
2023/10/05 11:58:22;;;;;;;;;;;20.20;99.90;;;;;;7334029;19;110145;-66
2023/10/05 12:00:50;;;;;;;;;;;20.20;99.90;;;;;;7334219;19;109083;-65
2023/10/05 12:03:17;;;;;;;;;;;20.30;99.90;;;;;;7336915;19;108997;-65
2023/10/05 12:05:45;;;;;;;;;;;20.40;99.90;;;;;;7334689;19;111559;-65
2023/10/05 12:08:12;;;;;;;;;;;20.50;99.90;;;;;;7335499;19;108834;-65
2023/10/05 12:10:40;;;;;;;;;;;20.60;99.90;;;;;;7334254;19;110217;-65
2023/10/05 12:13:07;;;;;;;;;;;20.70;99.90;;;;;;7332821;19;109138;-66
2023/10/05 12:15:36;;;;;;;;;;;20.80;99.90;;;;;;7335091;19;112528;-65
2023/10/05 12:18:12;;;;;;;;;;;20.90;99.90;;;;;;7328955;19;111377;-65
2023/10/05 12:20:41;;;;;;;;;;;21.00;99.90;;;;;;7332382;19;109047;-65
2023/10/05 12:23:14;;;;;;;;;;;21.10;99.90;;;;;;7330876;19;109225;-65
2023/10/05 12:25:45;;;;;;;;;;;21.10;99.90;;;;;;7336523;19;109473;-65
2023/10/05 12:28:12;;;;;;;;;;;21.10;99.90;;;;;;7333882;19;110407;-65
2023/10/05 12:30:44;;;;;;;;;;;21.20;99.90;;;;;;7332857;19;109402;-65
2023/10/05 12:33:11;;;;;;;;;;;21.20;99.90;;;;;;7334101;19;108834;-65
2023/10/05 12:35:38;;;;;;;;;;;21.30;99.90;;;;;;7329650;19;110121;-65
2023/10/05 12:38:09;;;;;;;;;;;21.30;99.90;;;;;;7331869;19;110016;-65
2023/10/05 12:40:40;;;;;;;;;;;21.30;99.90;;;;;;7332841;19;109650;-65
2023/10/05 12:43:15;;;;;;;;;;;21.20;99.90;;;;;;7330516;19;112442;-65
2023/10/05 12:45:44;;;;;;;;;;;21.20;99.90;;;;;;7332992;19;111469;-65
2023/10/05 12:48:12;;;;;;;;;;;21.30;99.90;;;;;;7337013;19;108670;-65
2023/10/05 12:50:41;;;;;;;;;;;21.40;99.90;;;;;;7336614;19;110142;-65
2023/10/05 12:53:08;;;;;;;;;;;21.50;99.90;;;;;;7330769;19;108983;-65
2023/10/05 12:55:37;;;;;;;;;;;21.50;99.90;;;;;;7331044;19;108915;-65
2023/10/05 12:58:08;;;;;;;;;;;21.50;99.90;;;;;;7338868;19;109441;-65
2023/10/05 13:00:40;;;;;;;;;;;21.60;99.90;;;;;;7329392;19;111309;-65
2023/10/05 13:03:11;;;;;;;;;;;21.60;99.90;;;;;;7332492;19;109948;-68
2023/10/05 13:05:43;;;;;;;;;;;21.60;99.90;;;;;;7329701;19;109575;-65
2023/10/05 13:08:11;;;;;;;;;;;21.60;99.90;;;;;;7331943;19;109801;-65
2023/10/05 13:10:51;;;;;;;;;;;21.70;99.90;;;;;;7337358;19;110771;-65
2023/10/05 13:13:20;;;;;;;;;;;21.70;99.90;;;;;;7331572;19;109235;-66
2023/10/05 13:15:48;;;;;;;;;;;21.70;99.90;;;;;;7334277;19;108629;-65
2023/10/05 13:18:18;;;;;;;;;;;21.70;99.90;;;;;;7331311;19;109402;-66
2023/10/05 13:20:50;;;;;;;;;;;21.70;99.90;;;;;;7331819;19;108948;-65
2023/10/05 13:23:21;;;;;;;;;;;21.70;99.90;;;;;;7330737;19;109492;-65
2023/10/05 13:25:50;;;;;;;;;;;21.70;99.90;;;;;;7332757;19;110476;-66
2023/10/05 13:28:19;;;;;;;;;;;21.60;99.90;;;;;;7331293;19;108883;-65
2023/10/05 13:30:47;;;;;;;;;;;21.60;99.90;;;;;;7328998;19;108663;-65
2023/10/05 13:33:21;;;;;;;;;;;21.50;99.90;;;;;;7334835;19;109843;-65
2023/10/05 13:35:50;;;;;;;;;;;21.50;99.90;;;;;;7330113;19;108536;-71
2023/10/05 13:38:19;;;;;;;;;;;21.50;99.90;;;;;;7334189;19;109408;-65
2023/10/05 13:41:13;;;;;;;;;;;21.60;99.90;;;;;;7332969;19;109463;-65
2023/10/05 13:43:41;;;;;;;;;;;21.60;99.90;;;;;;7329734;19;109365;-65
2023/10/05 13:46:18;;;;;;;;;;;21.70;99.90;;;;;;7329720;19;110154;-65
2023/10/05 13:48:48;;;;;;;;;;;21.70;99.90;;;;;;7339469;19;109156;-65
2023/10/05 13:51:16;;;;;;;;;;;21.80;99.90;;;;;;7341030;19;109089;-65
2023/10/05 13:53:44;;;;;;;;;;;21.80;99.90;;;;;;7339616;19;109278;-65
2023/10/05 13:56:12;;;;;;;;;;;22.00;99.90;;;;;;7345394;19;109476;-65
2023/10/05 13:58:47;;;;;;;;;;;22.10;99.90;;;;;;7338175;19;110003;-65
2023/10/05 14:01:21;;;;;;;;;;;22.20;99.90;;;;;;7340789;19;108777;-65
2023/10/05 14:03:48;;;;;;;;;;;22.30;99.90;;;;;;7338940;19;109036;-66
2023/10/05 14:06:16;;;;;;;;;;;22.40;99.90;;;;;;7337535;19;109847;-65
2023/10/05 14:08:46;;;;;;;;;;;22.40;99.90;;;;;;7336555;19;109088;-65
2023/10/05 14:11:14;;;;;;;;;;;22.50;99.90;;;;;;7338907;19;109032;-65
2023/10/05 14:13:43;;;;;;;;;;;22.50;99.90;;;;;;7336856;19;110100;-65
2023/10/05 14:16:11;;;;;;;;;;;22.60;99.90;;;;;;7344616;19;108664;-66
2023/10/05 14:18:39;;;;;;;;;;;22.70;99.90;;;;;;7338158;19;110370;-64
2023/10/05 14:21:06;;;;;;;;;;;22.80;99.90;;;;;;7337257;19;109011;-65
2023/10/05 14:23:34;;;;;;;;;;;23.00;99.90;;;;;;7338012;19;108752;-65
2023/10/05 14:26:03;;;;;;;;;;;23.00;99.90;;;;;;7337685;19;110210;-65
2023/10/05 14:28:30;;;;;;;;;;;22.90;99.90;;;;;;7338123;19;109621;-65
2023/10/05 14:30:57;;;;;;;;;;;22.90;99.90;;;;;;7337330;19;108711;-64
2023/10/05 14:33:26;;;;;;;;;;;22.90;99.90;;;;;;7338723;19;109519;-65
2023/10/05 14:35:57;;;;;;;;;;;22.80;99.90;;;;;;7335943;19;109030;-65
2023/10/05 14:38:29;;;;;;;;;;;22.70;99.90;;;;;;7343592;19;108888;-66
2023/10/05 14:40:56;;;;;;;;;;;22.70;99.90;;;;;;7339520;19;108493;-65
2023/10/05 14:43:35;;;;;;;;;;;22.60;99.90;;;;;;7336027;19;108830;-65
2023/10/05 14:46:08;;;;;;;;;;;22.60;99.90;;;;;;7336277;19;109890;-65
2023/10/05 14:48:37;;;;;;;;;;;22.50;99.90;;;;;;7337599;19;108512;-65
2023/10/05 14:51:04;;;;;;;;;;;22.50;99.90;;;;;;7340049;19;108818;-65
2023/10/05 14:53:37;;;;;;;;;;;22.40;99.90;;;;;;7336153;19;112676;-65
2023/10/05 14:56:05;;;;;;;;;;;22.30;99.90;;;;;;7339370;19;109199;-65
2023/10/05 14:58:32;;;;;;;;;;;22.30;99.90;;;;;;7332601;19;109122;-72